Terminal Aerodrome Forecast
Issued by NWS

Home | Current Version | Previous Version | Text Only | Print | Product List | Glossary Off
Versions: 1 2 3 4 5 6 7 8 9 10 11 12 13 14 15 16

000
FTUS43 KBIS 142255 AAA
TAFDIK
TAF AMD
KDIK 142255Z 1423/1518 32017G25KT P6SM BKN025 BKN060
     FM150000 29010KT P6SM OVC060
     FM151700 27015KT P6SM SCT110=

USA.gov is the U.S. government's official web portal to all federal, state and local government web resources and services.